createdAt,value
2023-10-29T00:00:02.111Z,11.89
2023-10-29T00:01:08.486Z,11.82
2023-10-29T00:02:15.159Z,11.82
2023-10-29T00:03:18.715Z,11.85
2023-10-29T00:04:23.167Z,11.86
2023-10-29T00:05:31.839Z,11.87
2023-10-29T00:06:38.645Z,11.84
2023-10-29T00:07:41.215Z,11.58
2023-10-29T00:08:46.697Z,11.45
2023-10-29T00:09:50.376Z,11.45
2023-10-29T00:10:52.722Z,11.44
2023-10-29T00:11:56.585Z,11.38
2023-10-29T00:12:59.007Z,11.38
2023-10-29T00:14:04.199Z,11.37
2023-10-29T00:15:09.300Z,11.36
2023-10-29T00:16:16.657Z,11.29
2023-10-29T00:17:20.464Z,11.25
2023-10-29T00:18:25.505Z,11.24
2023-10-29T00:19:29.119Z,11.19
2023-10-29T00:20:31.876Z,11.22
2023-10-29T00:21:39.133Z,11.21
2023-10-29T00:22:43.405Z,11.22
2023-10-29T00:23:46.432Z,11.23
2023-10-29T00:24:49.779Z,11.21
2023-10-29T00:25:53.577Z,11.18
2023-10-29T00:26:55.887Z,11.12
2023-10-29T00:27:59.363Z,11.13
2023-10-29T00:29:05.991Z,11.09
2023-10-29T00:30:10.907Z,11.04
2023-10-29T00:31:14.526Z,11.04
2023-10-29T00:32:20.298Z,11.03
2023-10-29T00:33:24.148Z,11.06
2023-10-29T00:34:28.215Z,11.06
2023-10-29T00:35:31.676Z,11.11
2023-10-29T00:36:35.042Z,11.14
2023-10-29T00:37:40.162Z,11.21
2023-10-29T00:38:43.916Z,11.25
2023-10-29T00:39:47.619Z,11.26
2023-10-29T00:40:50.964Z,11.33
2023-10-29T00:41:56.400Z,11.38
2023-10-29T00:42:59.483Z,11.39
2023-10-29T00:44:04.719Z,11.46
2023-10-29T00:45:10.442Z,11.51
2023-10-29T00:46:16.304Z,11.56
2023-10-29T00:47:21.213Z,11.62
2023-10-29T00:48:27.878Z,11.65
2023-10-29T00:49:31.488Z,11.68
2023-10-29T00:50:35.404Z,11.68
2023-10-29T00:51:38.881Z,11.72
2023-10-29T00:52:43.158Z,11.73
2023-10-29T00:53:51.310Z,11.76
2023-10-29T00:54:56.945Z,11.82
2023-10-29T00:56:00.827Z,11.84
2023-10-29T00:57:06.679Z,11.83
2023-10-29T00:58:10.599Z,11.87
2023-10-29T00:59:13.999Z,11.88
2023-10-29T01:00:20.553Z,11.85
2023-10-29T01:01:24.576Z,11.91
2023-10-29T01:02:28.330Z,11.95
2023-10-29T01:03:31.482Z,11.98
2023-10-29T01:04:37.276Z,12.06
2023-10-29T01:05:41.153Z,12.07
2023-10-29T01:06:46.250Z,12.07
2023-10-29T01:07:51.092Z,12.12
2023-10-29T01:08:56.432Z,12.06
2023-10-29T01:10:01.916Z,12.06
2023-10-29T01:11:07.005Z,12.07
2023-10-29T01:12:18.216Z,12.03
2023-10-29T01:13:21.093Z,11.88
2023-10-29T01:14:26.850Z,11.95
2023-10-29T01:15:37.950Z,11.97
2023-10-29T01:16:42.057Z,12.06
2023-10-29T01:17:51.045Z,12.08
2023-10-29T01:19:03.128Z,12.13
2023-10-29T01:20:10.739Z,12.16
2023-10-29T01:21:16.666Z,12.11
2023-10-29T01:22:20.061Z,12.03
2023-10-29T01:23:23.524Z,12.12
2023-10-29T01:24:28.942Z,12.03
2023-10-29T01:25:32.148Z,12.06
2023-10-29T01:26:35.695Z,12.03
2023-10-29T01:27:40.268Z,11.94
2023-10-29T01:28:46.917Z,11.84
2023-10-29T01:29:50.480Z,11.88
2023-10-29T01:30:55.392Z,11.81
2023-10-29T01:32:06.629Z,11.84
2023-10-29T01:33:11.326Z,11.93
2023-10-29T01:34:15.097Z,12.10
2023-10-29T01:35:18.612Z,12.17
2023-10-29T01:36:23.076Z,12.16
2023-10-29T01:37:25.822Z,12.18
2023-10-29T01:38:29.750Z,12.22
2023-10-29T01:39:33.246Z,12.24
2023-10-29T01:40:38.631Z,12.26
2023-10-29T01:41:43.582Z,12.25
2023-10-29T01:42:47.816Z,12.31
2023-10-29T01:43:50.713Z,12.28
2023-10-29T01:44:54.104Z,12.29
2023-10-29T01:45:59.524Z,12.28
2023-10-29T01:47:04.126Z,12.24
2023-10-29T01:48:11.254Z,12.19
2023-10-29T01:49:15.127Z,12.18
2023-10-29T01:50:18.741Z,12.11
2023-10-29T01:51:25.484Z,12.11
2023-10-29T01:52:28.991Z,12.14
2023-10-29T01:53:32.391Z,12.10
2023-10-29T01:54:35.880Z,12.04
2023-10-29T01:55:39.161Z,11.98
2023-10-29T01:56:44.208Z,11.91
2023-10-29T01:57:47.882Z,11.89
2023-10-29T01:58:51.380Z,12.05
2023-10-29T01:59:55.382Z,12.07
2023-10-29T02:00:59.598Z,12.05
2023-10-29T02:02:07.171Z,12.13
2023-10-29T02:03:11.705Z,12.15
2023-10-29T02:04:20.522Z,12.19
2023-10-29T02:05:23.134Z,12.15
2023-10-29T02:06:26.663Z,12.14
2023-10-29T02:07:29.130Z,12.17
2023-10-29T02:08:34.230Z,12.09
2023-10-29T02:09:39.107Z,11.98
2023-10-29T02:10:43.578Z,11.85
2023-10-29T02:11:50.113Z,11.76
2023-10-29T02:12:54.809Z,11.70
2023-10-29T02:13:57.809Z,11.73
2023-10-29T02:15:04.773Z,11.63
2023-10-29T02:16:08.513Z,11.63
2023-10-29T02:17:12.060Z,11.67
2023-10-29T02:18:15.594Z,11.59
2023-10-29T02:19:19.169Z,11.65
2023-10-29T02:20:22.907Z,11.56
2023-10-29T02:21:26.707Z,11.49
2023-10-29T02:22:32.928Z,11.41
2023-10-29T02:23:36.930Z,11.46
2023-10-29T02:24:41.422Z,11.43
2023-10-29T02:25:45.009Z,11.45
2023-10-29T02:26:48.421Z,11.53
2023-10-29T02:27:51.918Z,11.54
2023-10-29T02:28:54.793Z,11.51
2023-10-29T02:29:58.354Z,11.38
2023-10-29T02:31:02.109Z,11.28
2023-10-29T02:32:05.570Z,11.23
2023-10-29T02:33:09.638Z,11.24
2023-10-29T02:34:15.108Z,11.18
2023-10-29T02:35:22.300Z,11.26
2023-10-29T02:36:25.802Z,11.19
2023-10-29T02:37:28.360Z,11.21
2023-10-29T02:38:30.844Z,11.18
2023-10-29T02:39:34.542Z,11.16
2023-10-29T02:40:37.732Z,11.23
2023-10-29T02:41:42.885Z,11.19
2023-10-29T02:42:46.868Z,10.96
2023-10-29T02:43:50.316Z,11.15
2023-10-29T02:44:55.238Z,11.22
2023-10-29T02:45:59.167Z,11.11
2023-10-29T02:47:01.903Z,10.95
2023-10-29T02:48:05.069Z,10.89
2023-10-29T02:49:08.440Z,10.98
2023-10-29T02:50:12.308Z,11.14
2023-10-29T02:51:15.916Z,11.08
2023-10-29T02:52:20.676Z,11.18
2023-10-29T02:53:24.012Z,11.28
2023-10-29T02:54:27.583Z,11.24
2023-10-29T02:55:31.089Z,11.15
2023-10-29T02:56:37.935Z,11.10
2023-10-29T02:57:44.175Z,11.06
2023-10-29T02:58:47.658Z,11.23
2023-10-29T02:59:50.212Z,11.31
2023-10-29T03:00:54.259Z,11.34
2023-10-29T03:01:57.563Z,11.16
2023-10-29T03:03:02.260Z,11.15
2023-10-29T03:04:10.347Z,11.17
2023-10-29T03:05:14.434Z,11.23
2023-10-29T03:06:18.895Z,11.24
2023-10-29T03:07:22.398Z,11.25
2023-10-29T03:08:25.573Z,11.19
2023-10-29T03:09:32.865Z,11.22
2023-10-29T03:10:40.112Z,11.21
2023-10-29T03:11:43.640Z,11.09
2023-10-29T03:12:47.332Z,11.00
2023-10-29T03:13:50.148Z,11.00
2023-10-29T03:14:53.472Z,11.12
2023-10-29T03:15:58.606Z,11.17
2023-10-29T03:17:01.977Z,11.25
2023-10-29T03:18:07.105Z,11.33
2023-10-29T03:19:10.762Z,11.43
2023-10-29T03:20:14.992Z,11.42
2023-10-29T03:21:18.595Z,11.57
2023-10-29T03:22:22.128Z,11.63
2023-10-29T03:23:25.954Z,11.61
2023-10-29T03:24:30.931Z,11.61
2023-10-29T03:25:35.590Z,11.63
2023-10-29T03:26:38.700Z,11.67
2023-10-29T03:27:42.565Z,11.64
2023-10-29T03:28:48.151Z,11.71
2023-10-29T03:29:51.934Z,11.72
2023-10-29T03:30:55.440Z,11.69
2023-10-29T03:32:00.966Z,11.75
2023-10-29T03:33:04.333Z,11.81
2023-10-29T03:34:10.108Z,11.74
2023-10-29T03:35:13.044Z,11.53
2023-10-29T03:36:17.897Z,11.38
2023-10-29T03:37:20.994Z,11.37
2023-10-29T03:38:23.566Z,11.39
2023-10-29T03:39:27.386Z,11.33
2023-10-29T03:40:32.840Z,11.24
2023-10-29T03:41:40.164Z,11.31
2023-10-29T03:42:44.584Z,11.37
2023-10-29T03:43:51.634Z,11.38
2023-10-29T03:44:55.693Z,11.47
2023-10-29T03:45:59.178Z,11.44
2023-10-29T03:47:01.657Z,11.49
2023-10-29T03:48:05.234Z,11.55
2023-10-29T03:49:10.208Z,11.55
2023-10-29T03:50:14.029Z,11.60
2023-10-29T03:51:21.389Z,11.63
2023-10-29T03:52:24.608Z,11.70
2023-10-29T03:53:28.216Z,11.75
2023-10-29T03:54:31.798Z,11.75
2023-10-29T03:55:37.294Z,11.73
2023-10-29T03:56:41.507Z,11.62
2023-10-29T03:57:44.765Z,11.58
2023-10-29T03:58:48.330Z,11.51
2023-10-29T03:59:51.867Z,11.54
2023-10-29T04:00:54.606Z,11.56
2023-10-29T04:01:57.885Z,11.45
2023-10-29T04:03:01.406Z,11.37
2023-10-29T04:04:05.563Z,11.27
2023-10-29T04:05:10.229Z,11.36
2023-10-29T04:06:14.155Z,11.36
2023-10-29T04:07:17.514Z,11.43
2023-10-29T04:08:21.776Z,11.45
2023-10-29T04:09:28.399Z,11.46
2023-10-29T04:10:31.679Z,11.50
2023-10-29T04:11:35.426Z,11.47
2023-10-29T04:12:39.109Z,11.54
2023-10-29T04:13:46.923Z,11.49
2023-10-29T04:14:50.603Z,11.58
2023-10-29T04:15:57.101Z,11.61
2023-10-29T04:17:01.280Z,11.68
2023-10-29T04:18:04.722Z,11.74
2023-10-29T04:19:08.397Z,11.74
2023-10-29T04:20:13.353Z,11.70
2023-10-29T04:21:16.571Z,11.71
2023-10-29T04:22:19.251Z,11.67
2023-10-29T04:23:22.719Z,11.64
2023-10-29T04:24:26.547Z,11.53
2023-10-29T04:25:29.769Z,11.47
2023-10-29T04:26:34.238Z,11.32
2023-10-29T04:27:40.192Z,11.18
2023-10-29T04:28:46.831Z,11.03
2023-10-29T04:29:49.792Z,11.08
2023-10-29T04:30:56.221Z,11.11
2023-10-29T04:32:00.846Z,11.14
2023-10-29T04:33:05.022Z,11.11
2023-10-29T04:34:08.952Z,11.08
2023-10-29T04:35:13.299Z,11.05
2023-10-29T04:36:21.562Z,11.09
2023-10-29T04:37:24.889Z,11.00
2023-10-29T04:38:32.359Z,11.02
2023-10-29T04:39:36.203Z,10.98
2023-10-29T04:40:41.365Z,10.95
2023-10-29T04:41:46.947Z,10.84
2023-10-29T04:42:50.560Z,10.74
2023-10-29T04:43:54.901Z,10.70
2023-10-29T04:45:00.311Z,10.64
2023-10-29T04:46:04.773Z,10.68
2023-10-29T04:47:08.476Z,10.70
2023-10-29T04:48:13.772Z,10.69
2023-10-29T04:49:15.891Z,10.61
2023-10-29T04:50:20.837Z,10.59
2023-10-29T04:51:24.259Z,10.53
2023-10-29T04:52:28.275Z,10.51
2023-10-29T04:53:33.268Z,10.49
2023-10-29T04:54:37.368Z,10.46
2023-10-29T04:55:41.784Z,10.47
2023-10-29T04:56:46.199Z,10.52
2023-10-29T04:57:49.770Z,10.53
2023-10-29T04:58:53.708Z,10.48
2023-10-29T04:59:56.983Z,10.45
2023-10-29T05:01:00.827Z,10.37
2023-10-29T05:02:05.825Z,10.37
2023-10-29T05:03:10.028Z,10.30
2023-10-29T05:04:18.615Z,10.30
2023-10-29T05:05:24.366Z,10.31
2023-10-29T05:06:28.881Z,10.29
2023-10-29T05:07:31.622Z,10.32
2023-10-29T05:08:35.012Z,10.30
2023-10-29T05:09:40.128Z,10.32
2023-10-29T05:10:45.191Z,10.34
2023-10-29T05:11:48.668Z,10.39
2023-10-29T05:12:52.210Z,10.40
2023-10-29T05:13:55.820Z,10.43
2023-10-29T05:14:59.153Z,10.55
2023-10-29T05:16:02.365Z,10.63
2023-10-29T05:17:06.123Z,10.71
2023-10-29T05:18:10.205Z,10.74
2023-10-29T05:19:14.062Z,10.77
2023-10-29T05:20:17.902Z,10.78
2023-10-29T05:21:22.287Z,10.92
2023-10-29T05:22:26.156Z,10.98
2023-10-29T05:23:30.837Z,11.02
2023-10-29T05:24:35.257Z,11.16
2023-10-29T05:25:40.462Z,11.32
2023-10-29T05:26:43.114Z,11.34
2023-10-29T05:27:53.401Z,11.41
2023-10-29T05:28:56.773Z,11.50
2023-10-29T05:30:00.771Z,11.61
2023-10-29T05:31:03.481Z,11.68
2023-10-29T05:32:07.615Z,11.68
2023-10-29T05:33:11.107Z,11.68
2023-10-29T05:34:16.325Z,11.73
2023-10-29T05:35:19.734Z,11.81
2023-10-29T05:36:23.313Z,11.80
2023-10-29T05:37:28.079Z,11.80
2023-10-29T05:38:31.725Z,11.77
2023-10-29T05:39:35.292Z,11.68
2023-10-29T05:40:38.902Z,11.67
2023-10-29T05:41:41.324Z,11.70
2023-10-29T05:42:44.863Z,11.57
2023-10-29T05:43:59.137Z,11.51
2023-10-29T05:45:03.000Z,11.56
2023-10-29T05:46:09.921Z,11.55
2023-10-29T05:47:14.148Z,11.60
2023-10-29T05:48:17.694Z,11.56
2023-10-29T05:49:20.207Z,11.42
2023-10-29T05:50:24.866Z,11.45
2023-10-29T05:51:28.264Z,11.47
2023-10-29T05:52:31.966Z,11.59
2023-10-29T05:53:34.465Z,11.68
2023-10-29T05:54:39.221Z,11.67
2023-10-29T05:55:42.700Z,11.73
2023-10-29T05:56:46.242Z,11.74
2023-10-29T05:57:51.176Z,11.67
2023-10-29T05:58:53.514Z,11.59
2023-10-29T05:59:56.931Z,11.69
2023-10-29T06:01:05.258Z,11.75
2023-10-29T06:02:10.134Z,11.77
2023-10-29T06:03:14.007Z,11.74
2023-10-29T06:04:17.973Z,11.84
2023-10-29T06:05:21.186Z,11.91
2023-10-29T06:06:24.744Z,11.94
2023-10-29T06:07:27.206Z,11.89
2023-10-29T06:08:32.528Z,11.90
2023-10-29T06:09:37.858Z,11.89
2023-10-29T06:10:40.646Z,11.89
2023-10-29T06:11:47.825Z,11.89
2023-10-29T06:12:50.475Z,11.82
2023-10-29T06:13:54.497Z,11.60
2023-10-29T06:14:58.365Z,11.69
2023-10-29T06:16:01.760Z,11.89
2023-10-29T06:17:23.423Z,11.99
2023-10-29T06:18:15.288Z,12.05
2023-10-29T06:19:18.610Z,12.02
2023-10-29T06:20:24.099Z,12.15
2023-10-29T06:21:30.576Z,12.25
2023-10-29T06:22:34.344Z,12.26
2023-10-29T06:23:38.723Z,12.21
2023-10-29T06:24:44.107Z,12.17
2023-10-29T06:25:52.616Z,12.06
2023-10-29T06:26:57.226Z,12.07
2023-10-29T06:28:00.539Z,12.26
2023-10-29T06:29:03.829Z,12.22
2023-10-29T06:30:08.626Z,12.21
2023-10-29T06:31:12.250Z,12.24
2023-10-29T06:32:18.324Z,12.34
2023-10-29T06:33:21.896Z,12.44
2023-10-29T06:34:25.529Z,12.41
2023-10-29T06:35:30.924Z,12.37
2023-10-29T06:36:34.340Z,12.42
2023-10-29T06:37:38.750Z,12.36
2023-10-29T06:38:42.087Z,12.37
2023-10-29T06:39:45.502Z,12.44
2023-10-29T06:40:48.610Z,12.38
2023-10-29T06:41:53.272Z,12.30
2023-10-29T06:42:58.503Z,12.33
2023-10-29T06:44:02.716Z,12.39
2023-10-29T06:45:07.500Z,12.42
2023-10-29T06:46:10.893Z,12.40
2023-10-29T06:47:19.353Z,12.52
2023-10-29T06:48:24.683Z,12.65
2023-10-29T06:49:29.695Z,12.62
2023-10-29T06:50:34.979Z,12.80
2023-10-29T06:51:38.854Z,12.81
2023-10-29T06:52:42.998Z,12.76
2023-10-29T06:53:46.936Z,12.68
2023-10-29T06:54:53.855Z,12.74
2023-10-29T06:55:57.466Z,12.78
2023-10-29T06:57:05.632Z,12.89
2023-10-29T06:58:11.473Z,12.90
2023-10-29T06:59:14.858Z,12.89
2023-10-29T07:00:18.614Z,12.98
2023-10-29T07:01:22.453Z,13.17
2023-10-29T07:02:26.196Z,13.23
2023-10-29T07:03:29.839Z,13.29
2023-10-29T07:04:33.782Z,13.35
2023-10-29T07:05:38.299Z,13.21
2023-10-29T07:06:43.747Z,13.30
2023-10-29T07:07:47.719Z,13.48
2023-10-29T07:08:51.236Z,13.64
2023-10-29T07:09:54.938Z,13.74
2023-10-29T07:10:58.571Z,13.80
2023-10-29T07:12:03.087Z,13.69
2023-10-29T07:13:08.025Z,13.69
2023-10-29T07:14:11.865Z,13.64
2023-10-29T07:15:15.635Z,13.59
2023-10-29T07:16:19.010Z,13.52
2023-10-29T07:17:22.920Z,13.53
2023-10-29T07:18:26.849Z,13.59
2023-10-29T07:19:30.159Z,13.78
2023-10-29T07:20:34.130Z,13.95
2023-10-29T07:21:37.778Z,14.21
2023-10-29T07:22:42.534Z,14.32
2023-10-29T07:23:46.199Z,14.06
2023-10-29T07:24:50.777Z,14.11
2023-10-29T07:25:54.408Z,14.19
2023-10-29T07:26:57.926Z,14.16
2023-10-29T07:28:03.970Z,14.16
2023-10-29T07:29:11.052Z,14.15
2023-10-29T07:30:14.340Z,14.05
2023-10-29T07:31:19.467Z,13.95
2023-10-29T07:32:21.491Z,13.88
2023-10-29T07:33:25.043Z,13.78
2023-10-29T07:34:29.279Z,13.61
2023-10-29T07:35:33.260Z,13.51
2023-10-29T07:36:38.172Z,13.41
2023-10-29T07:37:44.036Z,13.49
2023-10-29T07:38:48.949Z,13.43
2023-10-29T07:39:53.012Z,13.39
2023-10-29T07:40:56.304Z,13.39
2023-10-29T07:42:00.188Z,13.42
2023-10-29T07:43:05.207Z,13.43
2023-10-29T07:44:08.681Z,13.54
2023-10-29T07:45:13.641Z,13.68
2023-10-29T07:46:18.526Z,13.79
2023-10-29T07:47:23.307Z,13.92
2023-10-29T07:48:33.652Z,13.87
2023-10-29T07:49:39.384Z,13.65
2023-10-29T07:50:44.801Z,13.26
2023-10-29T07:51:49.025Z,13.19
2023-10-29T07:52:57.705Z,13.13
2023-10-29T07:54:01.485Z,13.27
2023-10-29T07:55:06.919Z,13.29
2023-10-29T07:56:14.368Z,13.49
2023-10-29T07:57:18.252Z,13.56
2023-10-29T07:58:20.462Z,13.69
2023-10-29T07:59:23.907Z,13.75
2023-10-29T08:00:27.825Z,13.86
2023-10-29T08:01:33.209Z,14.02
2023-10-29T08:02:36.998Z,14.11
2023-10-29T08:03:44.625Z,14.01
2023-10-29T08:04:49.671Z,14.08
2023-10-29T08:05:54.796Z,14.06
2023-10-29T08:07:01.646Z,14.18
2023-10-29T08:08:08.910Z,14.37
2023-10-29T08:09:11.987Z,14.28
2023-10-29T08:10:17.789Z,14.50
2023-10-29T08:11:27.563Z,14.71
2023-10-29T08:12:33.125Z,14.53
2023-10-29T08:13:37.694Z,14.76
2023-10-29T08:14:41.306Z,14.95
2023-10-29T08:15:44.905Z,15.14
2023-10-29T08:16:51.653Z,15.52
2023-10-29T08:17:57.136Z,16.13
2023-10-29T08:19:00.930Z,16.39
2023-10-29T08:20:04.878Z,16.61
2023-10-29T08:21:08.336Z,16.92
2023-10-29T08:22:11.350Z,17.44
2023-10-29T08:23:14.851Z,17.80
2023-10-29T08:24:18.253Z,17.99
2023-10-29T08:25:23.117Z,18.66
2023-10-29T08:26:28.733Z,18.96
2023-10-29T08:27:33.213Z,19.12
2023-10-29T08:28:39.898Z,19.19
2023-10-29T08:29:44.745Z,19.55
2023-10-29T08:30:50.879Z,19.46
2023-10-29T08:31:53.227Z,18.85
2023-10-29T08:32:59.519Z,17.95
2023-10-29T08:34:03.059Z,17.69
2023-10-29T08:35:09.996Z,17.59
2023-10-29T08:36:14.346Z,17.07
2023-10-29T08:37:20.203Z,16.90
2023-10-29T08:38:23.975Z,16.53
2023-10-29T08:39:29.360Z,16.29
2023-10-29T08:40:32.586Z,16.01
2023-10-29T08:41:37.914Z,16.14
2023-10-29T08:42:41.802Z,16.21
2023-10-29T08:43:46.182Z,16.34
2023-10-29T08:44:50.356Z,16.39
2023-10-29T08:45:54.003Z,16.31
2023-10-29T08:46:59.152Z,16.19
2023-10-29T08:48:02.849Z,16.30
2023-10-29T08:49:06.640Z,16.29
2023-10-29T08:50:10.989Z,16.23
2023-10-29T08:51:15.673Z,16.18
2023-10-29T08:52:18.724Z,16.20
2023-10-29T08:53:22.343Z,16.15
2023-10-29T08:54:25.658Z,15.97
2023-10-29T08:55:29.458Z,15.83
2023-10-29T08:56:35.905Z,15.95
2023-10-29T08:57:40.016Z,15.95
2023-10-29T08:58:42.699Z,16.10
2023-10-29T08:59:46.210Z,16.24
2023-10-29T09:00:50.744Z,16.23
2023-10-29T09:01:56.173Z,16.24
2023-10-29T09:02:59.623Z,16.43
2023-10-29T09:04:04.530Z,17.04
2023-10-29T09:05:09.179Z,17.09
2023-10-29T09:06:14.595Z,17.13
2023-10-29T09:07:19.834Z,17.04
2023-10-29T09:08:23.102Z,16.75
2023-10-29T09:09:27.561Z,16.66
2023-10-29T09:10:36.060Z,16.86
2023-10-29T09:11:46.708Z,16.60
2023-10-29T09:12:49.844Z,16.54
2023-10-29T09:13:55.985Z,16.63
2023-10-29T09:15:01.114Z,16.75
2023-10-29T09:16:04.385Z,16.92
2023-10-29T09:17:07.760Z,16.79
2023-10-29T09:18:10.496Z,16.46
2023-10-29T09:19:13.808Z,16.20
2023-10-29T09:20:18.685Z,16.21
2023-10-29T09:21:21.860Z,16.10
2023-10-29T09:22:26.014Z,15.99
2023-10-29T09:23:31.189Z,16.08
2023-10-29T09:24:33.363Z,16.12
2023-10-29T09:25:37.023Z,16.29
2023-10-29T09:26:42.889Z,16.38
2023-10-29T09:27:45.417Z,16.71
2023-10-29T09:28:49.033Z,16.90
2023-10-29T09:29:59.959Z,17.01
2023-10-29T09:31:06.399Z,17.15
2023-10-29T09:32:10.192Z,16.94
2023-10-29T09:33:15.140Z,16.96
2023-10-29T09:34:18.528Z,16.79
2023-10-29T09:35:22.482Z,16.52
2023-10-29T09:36:24.839Z,16.24
2023-10-29T09:37:27.416Z,16.31
2023-10-29T09:38:34.588Z,16.36
2023-10-29T09:39:39.595Z,15.84
2023-10-29T09:40:42.613Z,16.03
2023-10-29T09:41:46.979Z,16.23
2023-10-29T09:43:03.312Z,16.13
2023-10-29T09:44:10.475Z,16.16
2023-10-29T09:45:13.638Z,16.24
2023-10-29T09:46:17.349Z,16.12
2023-10-29T09:47:25.530Z,16.01
2023-10-29T09:48:29.158Z,16.19
2023-10-29T09:49:35.195Z,16.28
2023-10-29T09:50:37.721Z,16.44
2023-10-29T09:51:45.524Z,16.24
2023-10-29T09:52:52.733Z,16.51
2023-10-29T09:53:58.460Z,16.56
2023-10-29T09:55:03.604Z,16.75
2023-10-29T09:56:08.264Z,16.84
2023-10-29T09:57:11.858Z,16.95
2023-10-29T09:58:15.968Z,17.09
2023-10-29T09:59:20.118Z,17.16
2023-10-29T10:00:23.830Z,17.11
2023-10-29T10:01:27.236Z,17.01
2023-10-29T10:02:31.049Z,16.98
2023-10-29T10:03:34.493Z,17.21
2023-10-29T10:04:38.069Z,17.67
2023-10-29T10:05:43.021Z,17.95
2023-10-29T10:06:46.545Z,17.92
2023-10-29T10:07:51.404Z,17.43
2023-10-29T10:09:01.567Z,17.28
2023-10-29T10:10:05.385Z,17.37
2023-10-29T10:11:24.017Z,16.92
2023-10-29T10:12:28.606Z,17.04
2023-10-29T10:13:46.113Z,17.28
2023-10-29T10:14:52.608Z,17.60
2023-10-29T10:15:57.986Z,17.79
2023-10-29T10:17:11.577Z,17.78
2023-10-29T10:18:16.445Z,17.82
2023-10-29T10:19:24.841Z,17.90
2023-10-29T10:20:29.989Z,17.89
2023-10-29T10:21:43.846Z,17.92
2023-10-29T10:22:47.872Z,17.93
2023-10-29T10:23:58.633Z,18.09
2023-10-29T10:25:08.444Z,17.91
2023-10-29T10:26:12.183Z,18.17
2023-10-29T10:27:16.203Z,18.34
2023-10-29T10:28:19.830Z,18.39
2023-10-29T10:29:26.248Z,18.19
2023-10-29T10:30:31.316Z,18.19
2023-10-29T10:31:36.470Z,18.22
2023-10-29T10:32:40.194Z,18.12
2023-10-29T10:33:43.978Z,17.98
2023-10-29T10:34:49.925Z,17.89
2023-10-29T10:35:55.164Z,17.68
2023-10-29T10:37:02.360Z,17.80
2023-10-29T10:38:06.287Z,17.53
2023-10-29T10:40:24.488Z,17.91
2023-10-29T10:41:29.762Z,17.86
2023-10-29T10:42:35.579Z,17.89
2023-10-29T10:43:38.775Z,18.02
2023-10-29T10:44:43.542Z,18.09
2023-10-29T10:45:53.887Z,18.01
2023-10-29T10:47:00.196Z,17.79
2023-10-29T10:48:09.454Z,17.42
2023-10-29T10:49:12.578Z,17.31
2023-10-29T10:50:16.268Z,17.68
2023-10-29T10:51:19.711Z,17.68
2023-10-29T10:52:26.656Z,17.48
2023-10-29T10:53:36.477Z,17.30
2023-10-29T10:54:41.281Z,17.59
2023-10-29T10:56:01.404Z,17.73
2023-10-29T10:56:51.935Z,17.50
2023-10-29T10:57:56.598Z,17.26
2023-10-29T10:59:01.463Z,17.43
2023-10-29T11:00:07.240Z,17.30
2023-10-29T11:01:11.787Z,17.08
2023-10-29T11:02:16.048Z,17.09
2023-10-29T11:03:31.836Z,16.87
2023-10-29T11:04:26.742Z,17.01
2023-10-29T11:05:36.226Z,17.00
2023-10-29T11:06:40.408Z,16.96
2023-10-29T11:07:44.399Z,16.61
2023-10-29T11:08:49.312Z,16.37
2023-10-29T11:09:53.539Z,16.44
2023-10-29T11:10:59.076Z,16.13
2023-10-29T11:12:03.010Z,16.01
2023-10-29T11:13:20.140Z,16.09
2023-10-29T11:14:25.323Z,16.13
2023-10-29T11:15:28.817Z,16.20
2023-10-29T11:16:31.564Z,16.13
2023-10-29T11:17:54.175Z,16.33
2023-10-29T11:18:58.588Z,16.40
2023-10-29T11:20:03.219Z,16.64
2023-10-29T11:21:06.492Z,16.71
2023-10-29T11:22:14.908Z,16.66
2023-10-29T11:23:19.995Z,16.76
2023-10-29T11:24:25.476Z,16.94
2023-10-29T11:25:30.888Z,17.09
2023-10-29T11:26:37.187Z,17.05
2023-10-29T11:27:49.515Z,17.05
2023-10-29T11:28:55.611Z,17.18
2023-10-29T11:30:17.694Z,17.14
2023-10-29T11:31:22.393Z,17.00
2023-10-29T11:32:29.526Z,16.98
2023-10-29T11:33:33.364Z,16.62
2023-10-29T11:34:37.009Z,16.60
2023-10-29T11:35:41.418Z,16.69
2023-10-29T11:36:44.975Z,16.65
2023-10-29T11:37:53.481Z,16.52
2023-10-29T11:38:59.110Z,16.73
2023-10-29T11:40:04.254Z,16.81
2023-10-29T11:41:25.142Z,16.73
2023-10-29T11:42:28.767Z,16.86
2023-10-29T11:43:34.129Z,16.90
2023-10-29T11:44:39.494Z,16.76
2023-10-29T11:45:44.146Z,16.36
2023-10-29T11:47:04.920Z,16.69
2023-10-29T11:48:13.898Z,16.97
2023-10-29T11:49:17.312Z,17.16
2023-10-29T11:50:19.886Z,17.08
2023-10-29T11:51:23.508Z,17.19
2023-10-29T11:52:30.469Z,17.30
2023-10-29T11:53:34.323Z,17.25
2023-10-29T11:54:40.231Z,17.27
2023-10-29T11:55:43.654Z,17.21
2023-10-29T11:56:48.450Z,17.20
2023-10-29T11:57:53.345Z,17.23
2023-10-29T11:59:08.429Z,17.11
2023-10-29T12:00:13.640Z,17.13
2023-10-29T12:01:20.537Z,17.08
2023-10-29T12:02:27.027Z,17.26
2023-10-29T12:03:36.198Z,17.26
2023-10-29T12:04:39.876Z,17.07
2023-10-29T12:05:47.984Z,16.89
2023-10-29T12:06:51.848Z,16.94
2023-10-29T12:08:05.178Z,17.02
2023-10-29T12:09:22.646Z,17.20
2023-10-29T12:10:27.024Z,17.46
2023-10-29T12:11:30.446Z,17.36
2023-10-29T12:12:33.938Z,17.54
2023-10-29T12:13:42.054Z,17.55
2023-10-29T12:14:49.055Z,17.50
2023-10-29T12:16:00.485Z,17.56
2023-10-29T12:17:08.313Z,17.64
2023-10-29T12:18:13.105Z,17.40
2023-10-29T12:19:16.394Z,17.35
2023-10-29T12:20:28.285Z,17.36
2023-10-29T12:21:30.988Z,17.16
2023-10-29T12:22:41.478Z,17.23
2023-10-29T12:23:45.607Z,17.26
2023-10-29T12:24:53.820Z,17.17
2023-10-29T12:25:58.057Z,17.20
2023-10-29T12:27:10.266Z,16.97
2023-10-29T12:28:15.469Z,16.99
2023-10-29T12:29:19.273Z,16.85
2023-10-29T12:31:50.538Z,16.98
2023-10-29T12:32:56.008Z,16.96
2023-10-29T12:33:59.513Z,17.07
2023-10-29T12:35:02.712Z,17.25
2023-10-29T12:36:12.624Z,17.32
2023-10-29T12:37:28.778Z,17.20
2023-10-29T12:38:32.075Z,17.23
2023-10-29T12:39:34.746Z,17.31
2023-10-29T12:40:38.366Z,17.23
2023-10-29T12:41:41.990Z,17.27
2023-10-29T12:42:56.846Z,17.12
2023-10-29T12:44:02.775Z,17.19
2023-10-29T12:45:10.685Z,17.28
2023-10-29T12:46:14.803Z,17.21
2023-10-29T12:47:21.422Z,17.12
2023-10-29T12:48:26.513Z,17.08
2023-10-29T12:49:31.998Z,17.29
2023-10-29T12:50:49.932Z,17.46
2023-10-29T12:51:56.436Z,17.51
2023-10-29T12:53:00.053Z,17.27
2023-10-29T12:54:19.990Z,17.04
2023-10-29T12:55:23.353Z,16.97
2023-10-29T12:56:27.275Z,16.95
2023-10-29T12:57:30.989Z,16.77
2023-10-29T12:58:33.724Z,16.37
2023-10-29T12:59:38.007Z,16.16
2023-10-29T13:00:42.036Z,16.31
2023-10-29T13:01:50.711Z,16.15
2023-10-29T13:02:57.218Z,16.35
2023-10-29T13:04:01.416Z,16.41
2023-10-29T13:05:05.582Z,16.36
2023-10-29T13:06:11.275Z,16.40
2023-10-29T13:07:16.004Z,16.31
2023-10-29T13:08:18.306Z,16.38
2023-10-29T13:09:23.731Z,16.52
2023-10-29T13:10:27.376Z,16.44
2023-10-29T13:11:31.902Z,16.54
2023-10-29T13:12:35.306Z,16.59
2023-10-29T13:13:43.390Z,16.58
2023-10-29T13:14:48.131Z,16.60
2023-10-29T13:15:50.626Z,16.66
2023-10-29T13:16:55.410Z,16.67
2023-10-29T13:18:00.119Z,16.64
2023-10-29T13:19:05.012Z,16.80
2023-10-29T13:20:11.202Z,16.93
2023-10-29T13:21:15.484Z,16.83
2023-10-29T13:22:19.838Z,16.71
2023-10-29T13:23:24.608Z,16.70
2023-10-29T13:24:27.436Z,16.75
2023-10-29T13:25:30.756Z,16.63
2023-10-29T13:26:33.091Z,16.59
2023-10-29T13:27:38.796Z,16.69
2023-10-29T13:28:44.460Z,16.66
2023-10-29T13:29:49.264Z,16.62
2023-10-29T13:30:55.643Z,16.60
2023-10-29T13:32:00.278Z,16.47
2023-10-29T13:33:04.282Z,16.34
2023-10-29T13:34:09.781Z,16.17
2023-10-29T13:35:14.590Z,16.15
2023-10-29T13:36:17.649Z,16.09
2023-10-29T13:37:21.302Z,15.82
2023-10-29T13:38:27.113Z,15.81
2023-10-29T13:39:30.617Z,15.88
2023-10-29T13:40:36.106Z,15.90
2023-10-29T13:41:41.896Z,15.88
2023-10-29T13:42:46.425Z,15.89
2023-10-29T13:43:49.551Z,15.87
2023-10-29T13:44:58.618Z,15.83
2023-10-29T13:46:05.164Z,15.80
2023-10-29T13:47:09.455Z,15.77
2023-10-29T13:48:12.690Z,15.71
2023-10-29T13:49:18.239Z,15.65
2023-10-29T13:50:20.603Z,15.64
2023-10-29T13:51:25.944Z,15.55
2023-10-29T13:52:28.196Z,15.52
2023-10-29T13:53:33.462Z,15.51
2023-10-29T13:54:37.435Z,15.48
2023-10-29T13:55:43.664Z,15.47
2023-10-29T13:56:47.489Z,15.39
2023-10-29T13:57:51.914Z,15.44
2023-10-29T13:58:59.332Z,15.47